createdAt,value
2018-07-27T00:01:56.886Z,4.83
2018-07-27T00:04:25.176Z,4.67
2018-07-27T00:06:53.481Z,5.07
2018-07-27T00:09:21.764Z,4.60
2018-07-27T00:11:50.041Z,4.60
2018-07-27T00:14:18.339Z,5.10
2018-07-27T00:16:46.619Z,5.20
2018-07-27T00:19:14.951Z,5.27
2018-07-27T00:21:43.243Z,5.27
2018-07-27T00:24:11.534Z,5.07
2018-07-27T00:26:39.834Z,5.53
2018-07-27T00:29:08.118Z,5.50
2018-07-27T00:31:36.460Z,5.00
2018-07-27T00:34:05.858Z,5.30
2018-07-27T00:36:34.138Z,5.40
2018-07-27T00:39:02.573Z,4.87
2018-07-27T00:41:30.857Z,5.27
2018-07-27T00:43:59.208Z,5.57
2018-07-27T00:46:27.502Z,5.60
2018-07-27T00:48:55.811Z,5.40
2018-07-27T00:51:24.091Z,5.33
2018-07-27T00:53:52.365Z,5.73
2018-07-27T00:56:20.687Z,5.57
2018-07-27T00:58:48.993Z,5.50
2018-07-27T01:01:17.291Z,6.00
2018-07-27T01:03:45.608Z,5.67
2018-07-27T01:06:13.891Z,5.70
2018-07-27T01:08:42.424Z,5.93
2018-07-27T01:11:11.560Z,5.40
2018-07-27T01:13:39.854Z,5.50
2018-07-27T01:16:08.307Z,5.80
2018-07-27T01:18:36.623Z,5.97
2018-07-27T01:21:04.953Z,5.63
2018-07-27T01:23:33.297Z,5.97
2018-07-27T01:26:01.736Z,5.70
2018-07-27T01:28:30.039Z,5.80
2018-07-27T01:30:59.033Z,5.80
2018-07-27T01:33:27.326Z,5.33
2018-07-27T01:35:55.809Z,5.30
2018-07-27T01:38:24.098Z,5.73
2018-07-27T01:40:52.431Z,5.70
2018-07-27T01:43:20.743Z,5.60
2018-07-27T01:45:49.059Z,5.90
2018-07-27T01:48:17.367Z,5.93
2018-07-27T01:50:45.676Z,5.80
2018-07-27T01:53:13.987Z,5.77
2018-07-27T01:55:42.270Z,6.23
2018-07-27T01:58:10.581Z,5.47
2018-07-27T02:00:40.088Z,5.73
2018-07-27T02:03:08.544Z,5.77
2018-07-27T02:05:36.899Z,5.70
2018-07-27T02:08:05.223Z,5.80
2018-07-27T02:10:33.529Z,5.97
2018-07-27T02:13:01.885Z,6.00
2018-07-27T02:15:30.320Z,6.03
2018-07-27T02:17:58.671Z,5.80
2018-07-27T02:20:26.967Z,5.80
2018-07-27T02:22:55.295Z,5.70
2018-07-27T02:25:23.567Z,5.50
2018-07-27T02:27:51.935Z,5.73
2018-07-27T02:30:20.275Z,5.83
2018-07-27T02:32:48.566Z,5.73
2018-07-27T02:35:16.881Z,5.87
2018-07-27T02:37:45.249Z,5.70
2018-07-27T02:40:13.576Z,5.83
2018-07-27T02:42:41.888Z,5.50
2018-07-27T02:45:10.207Z,6.40
2018-07-27T02:47:38.715Z,5.80
2018-07-27T02:50:07.165Z,5.70
2018-07-27T02:52:35.487Z,6.10
2018-07-27T02:55:03.817Z,6.37
2018-07-27T02:57:32.111Z,5.90
2018-07-27T03:00:00.586Z,5.93
2018-07-27T03:02:29.520Z,6.20
2018-07-27T03:04:57.836Z,5.93
2018-07-27T03:07:26.135Z,5.70
2018-07-27T03:09:54.582Z,5.93
2018-07-27T03:12:22.993Z,6.27
2018-07-27T03:14:51.279Z,6.03
2018-07-27T03:17:19.597Z,6.20
2018-07-27T03:19:47.903Z,6.00
2018-07-27T03:22:16.270Z,5.87
2018-07-27T03:24:44.576Z,6.33
2018-07-27T03:27:15.751Z,6.10
2018-07-27T03:29:44.079Z,6.13
2018-07-27T03:32:12.318Z,6.27
2018-07-27T03:34:40.714Z,5.60
2018-07-27T03:37:09.033Z,6.07
2018-07-27T03:39:37.355Z,5.83
2018-07-27T03:42:05.796Z,6.17
2018-07-27T03:44:34.082Z,5.73
2018-07-27T03:47:02.587Z,6.87
2018-07-27T03:49:30.859Z,6.00
2018-07-27T03:51:59.169Z,6.43
2018-07-27T03:54:27.539Z,6.70
2018-07-27T03:56:55.951Z,6.53
2018-07-27T03:59:24.306Z,7.03
2018-07-27T04:01:52.670Z,6.57
2018-07-27T04:04:21.034Z,6.20
2018-07-27T04:06:49.362Z,6.47
2018-07-27T04:09:17.646Z,6.37
2018-07-27T04:11:45.989Z,6.27
2018-07-27T04:14:14.279Z,6.63
2018-07-27T04:16:43.072Z,6.10
2018-07-27T04:19:11.492Z,7.00
2018-07-27T04:21:39.764Z,6.80
2018-07-27T04:24:08.116Z,7.10
2018-07-27T04:26:36.471Z,6.87
2018-07-27T04:29:04.787Z,6.77
2018-07-27T04:31:33.108Z,6.23
2018-07-27T04:34:01.387Z,7.10
2018-07-27T04:36:29.795Z,7.50
2018-07-27T04:38:58.077Z,6.90
2018-07-27T04:41:26.428Z,7.10
2018-07-27T04:43:54.910Z,7.23
2018-07-27T04:46:23.311Z,6.90
2018-07-27T04:48:51.703Z,7.20
2018-07-27T04:51:20.021Z,6.60
2018-07-27T04:53:49.119Z,7.30
2018-07-27T04:56:17.526Z,7.00
2018-07-27T04:58:45.751Z,6.53
2018-07-27T05:01:14.070Z,7.30
2018-07-27T05:03:42.460Z,6.70
2018-07-27T05:06:10.853Z,6.70
2018-07-27T05:08:44.690Z,6.60
2018-07-27T05:11:12.971Z,6.70
2018-07-27T05:13:41.295Z,6.97
2018-07-27T05:16:09.585Z,6.80
2018-07-27T05:18:37.836Z,6.97
2018-07-27T05:21:06.601Z,7.07
2018-07-27T05:23:34.936Z,6.80
2018-07-27T05:26:03.384Z,7.23
2018-07-27T05:28:31.815Z,6.60
2018-07-27T05:31:00.107Z,7.37
2018-07-27T05:33:28.652Z,6.47
2018-07-27T05:35:57.053Z,6.23
2018-07-27T05:38:25.336Z,6.57
2018-07-27T05:40:53.658Z,6.50
2018-07-27T05:43:22.035Z,6.97
2018-07-27T05:45:50.413Z,7.00
2018-07-27T05:48:18.779Z,7.10
2018-07-27T05:50:47.103Z,7.07
2018-07-27T05:53:15.468Z,7.13
2018-07-27T05:55:43.784Z,6.60
2018-07-27T05:58:12.325Z,6.93
2018-07-27T06:00:40.759Z,6.43
2018-07-27T06:03:09.047Z,6.50
2018-07-27T06:05:37.408Z,7.07
2018-07-27T06:08:05.906Z,6.37
2018-07-27T06:10:34.237Z,6.40
2018-07-27T06:13:02.554Z,6.43
2018-07-27T06:15:30.941Z,6.77
2018-07-27T06:17:59.341Z,6.70
2018-07-27T06:20:27.638Z,6.20
2018-07-27T06:22:55.998Z,6.50
2018-07-27T06:25:24.340Z,5.47
2018-07-27T06:27:52.740Z,6.70
2018-07-27T06:30:22.199Z,6.80
2018-07-27T06:32:50.492Z,6.40
2018-07-27T06:35:18.807Z,6.40
2018-07-27T06:37:47.117Z,7.10
2018-07-27T06:40:15.478Z,6.50
2018-07-27T06:42:43.793Z,6.80
2018-07-27T06:45:12.119Z,6.70
2018-07-27T06:47:40.490Z,6.40
2018-07-27T06:50:08.755Z,6.30
2018-07-27T06:52:37.577Z,5.90
2018-07-27T06:55:05.919Z,6.40
2018-07-27T06:57:34.243Z,6.50
2018-07-27T07:00:02.753Z,6.07
2018-07-27T07:02:31.082Z,6.43
2018-07-27T07:04:59.345Z,6.30
2018-07-27T07:07:27.756Z,6.90
2018-07-27T07:09:56.037Z,6.57
2018-07-27T07:12:24.347Z,6.43
2018-07-27T07:14:52.667Z,6.87
2018-07-27T07:17:21.013Z,6.87
2018-07-27T07:19:49.365Z,6.40
2018-07-27T07:22:17.982Z,6.37
2018-07-27T07:24:46.281Z,6.90
2018-07-27T07:27:14.575Z,6.60
2018-07-27T07:29:42.998Z,6.40
2018-07-27T07:32:11.381Z,6.10
2018-07-27T07:34:39.704Z,6.77
2018-07-27T07:37:08.030Z,6.20
2018-07-27T07:39:36.507Z,6.73
2018-07-27T07:42:05.003Z,6.17
2018-07-27T07:44:33.277Z,6.63
2018-07-27T07:47:01.771Z,6.40
2018-07-27T07:49:30.459Z,6.67
2018-07-27T07:51:58.821Z,6.70
2018-07-27T07:54:27.236Z,7.23
2018-07-27T07:56:55.851Z,6.63
2018-07-27T07:59:24.138Z,7.40
2018-07-27T08:01:52.415Z,6.63
2018-07-27T08:04:20.711Z,6.87
2018-07-27T08:06:49.016Z,6.80
2018-07-27T08:09:17.344Z,6.20
2018-07-27T08:11:45.686Z,6.70
2018-07-27T08:14:14.029Z,7.47
2018-07-27T08:16:42.414Z,6.97
2018-07-27T08:19:10.733Z,6.90
2018-07-27T08:21:39.060Z,6.90
2018-07-27T08:24:07.475Z,6.80
2018-07-27T08:26:38.872Z,7.13
2018-07-27T08:29:08.446Z,7.03
2018-07-27T08:31:36.754Z,7.00
2018-07-27T08:34:05.652Z,6.87
2018-07-27T08:36:34.779Z,6.93
2018-07-27T08:39:05.593Z,6.50
2018-07-27T08:41:34.326Z,6.13
2018-07-27T08:44:02.649Z,5.90
2018-07-27T08:46:30.960Z,6.13
2018-07-27T08:48:59.296Z,6.87
2018-07-27T08:51:27.601Z,6.30
2018-07-27T08:53:56.529Z,6.67
2018-07-27T08:56:25.036Z,6.90
2018-07-27T08:58:54.098Z,6.27
2018-07-27T09:01:22.449Z,6.33
2018-07-27T09:03:50.776Z,6.17
2018-07-27T09:06:19.325Z,6.30
2018-07-27T09:08:48.107Z,5.90
2018-07-27T09:11:16.454Z,5.80
2018-07-27T09:13:44.809Z,6.43
2018-07-27T09:16:13.124Z,6.60
2018-07-27T09:18:41.743Z,5.80
2018-07-27T09:21:10.267Z,5.77
2018-07-27T09:23:38.611Z,5.50
2018-07-27T09:26:07.036Z,5.97
2018-07-27T09:28:35.417Z,5.60
2018-07-27T09:31:03.761Z,5.70
2018-07-27T09:33:32.083Z,6.03
2018-07-27T09:36:00.398Z,5.63
2018-07-27T09:38:29.017Z,6.07
2018-07-27T09:40:57.287Z,5.17
2018-07-27T09:43:25.551Z,5.47
2018-07-27T09:45:54.167Z,5.17
2018-07-27T09:48:22.473Z,5.57
2018-07-27T09:50:58.485Z,5.00
2018-07-27T09:53:27.220Z,5.23
2018-07-27T09:56:00.618Z,4.57
2018-07-27T09:58:29.269Z,5.30
2018-07-27T10:01:02.919Z,4.70
2018-07-27T10:03:31.226Z,4.70
2018-07-27T10:06:00.107Z,5.37
2018-07-27T10:08:28.420Z,5.00
2018-07-27T10:10:56.707Z,5.43
2018-07-27T10:13:25.022Z,5.20
2018-07-27T10:15:53.427Z,5.00
2018-07-27T10:18:21.768Z,4.60
2018-07-27T10:20:50.121Z,4.83
2018-07-27T10:23:18.520Z,4.90
2018-07-27T10:25:47.014Z,4.70
2018-07-27T10:28:15.393Z,5.30
2018-07-27T10:30:43.819Z,5.50
2018-07-27T10:33:12.142Z,4.90
2018-07-27T10:35:40.521Z,4.70
2018-07-27T10:38:08.881Z,4.00
2018-07-27T10:40:37.195Z,4.50
2018-07-27T10:43:05.552Z,4.60
2018-07-27T10:45:33.931Z,4.60
2018-07-27T10:48:02.367Z,5.20
2018-07-27T10:50:35.379Z,4.70
2018-07-27T10:53:04.095Z,4.53
2018-07-27T10:55:32.702Z,3.93
2018-07-27T10:58:01.000Z,4.40
2018-07-27T11:00:29.331Z,4.43
2018-07-27T11:02:57.628Z,4.90
2018-07-27T11:05:25.965Z,4.43
2018-07-27T11:07:54.443Z,5.00
2018-07-27T11:10:24.036Z,4.53
2018-07-27T11:12:52.355Z,3.70
2018-07-27T11:15:20.738Z,3.87
2018-07-27T11:17:49.074Z,4.27
2018-07-27T11:20:17.388Z,4.17
2018-07-27T11:22:45.707Z,4.57
2018-07-27T11:25:14.334Z,3.70
2018-07-27T11:27:42.667Z,4.27
2018-07-27T11:30:11.032Z,3.60
2018-07-27T11:32:39.358Z,3.90
2018-07-27T11:35:07.694Z,4.20
2018-07-27T11:37:36.066Z,3.00
2018-07-27T11:40:05.626Z,3.40
2018-07-27T11:42:34.026Z,3.70
2018-07-27T11:45:02.279Z,3.87
2018-07-27T11:47:30.552Z,3.87
2018-07-27T11:49:58.892Z,4.10
2018-07-27T11:52:27.272Z,4.10
2018-07-27T11:54:55.674Z,4.20
2018-07-27T11:57:24.007Z,3.83
2018-07-27T11:59:52.431Z,4.17
2018-07-27T12:02:20.761Z,3.80
2018-07-27T12:04:49.086Z,3.90
2018-07-27T12:07:17.446Z,4.47
2018-07-27T12:09:45.854Z,4.40
2018-07-27T12:12:14.191Z,4.43
2018-07-27T12:14:42.704Z,4.47
2018-07-27T12:17:10.907Z,4.47
2018-07-27T12:19:39.252Z,4.43
2018-07-27T12:22:07.636Z,4.50
2018-07-27T12:24:36.001Z,4.50
2018-07-27T12:27:04.356Z,4.40
2018-07-27T12:29:32.674Z,3.43
2018-07-27T12:32:01.008Z,3.80
2018-07-27T12:34:29.353Z,3.93
2018-07-27T12:36:59.807Z,4.43
2018-07-27T12:39:29.724Z,4.60
2018-07-27T12:41:58.073Z,3.90
2018-07-27T12:44:26.879Z,4.10
2018-07-27T12:46:55.192Z,4.27
2018-07-27T12:49:23.594Z,4.00
2018-07-27T12:51:52.014Z,4.37
2018-07-27T12:54:20.494Z,4.15
2018-07-27T12:56:49.190Z,4.55
2018-07-27T12:59:17.464Z,3.98
2018-07-27T13:01:45.762Z,4.20
2018-07-27T13:04:14.175Z,4.22
2018-07-27T13:06:42.483Z,3.92
2018-07-27T13:09:12.119Z,4.08
2018-07-27T13:11:40.609Z,4.37
2018-07-27T13:14:09.158Z,3.90
2018-07-27T13:16:37.514Z,4.17
2018-07-27T13:19:05.976Z,4.28
2018-07-27T13:21:34.341Z,3.95
2018-07-27T13:24:03.186Z,3.67
2018-07-27T13:26:32.511Z,3.90
2018-07-27T13:29:00.842Z,4.05
2018-07-27T13:31:54.902Z,3.25
2018-07-27T13:34:30.810Z,3.50
2018-07-27T13:36:59.404Z,3.72
2018-07-27T13:39:28.105Z,3.35
2018-07-27T13:41:56.859Z,3.67
2018-07-27T13:44:25.126Z,3.37
2018-07-27T13:46:53.429Z,3.35
2018-07-27T13:49:21.759Z,3.00
2018-07-27T13:51:50.125Z,3.20
2018-07-27T13:54:18.431Z,3.00
2018-07-27T13:56:47.768Z,2.90
2018-07-27T13:59:17.001Z,3.50
2018-07-27T14:01:45.831Z,3.50
2018-07-27T14:04:14.388Z,3.20
2018-07-27T14:06:42.925Z,3.00
2018-07-27T14:09:12.370Z,3.10
2018-07-27T14:11:41.503Z,2.90
2018-07-27T14:14:10.142Z,3.00
2018-07-27T14:16:38.699Z,2.85
2018-07-27T14:19:07.091Z,3.27
2018-07-27T14:21:35.494Z,2.90
2018-07-27T14:24:03.754Z,3.00
2018-07-27T14:26:32.122Z,3.10
2018-07-27T14:29:00.428Z,3.02
2018-07-27T14:31:28.717Z,3.15
2018-07-27T14:33:57.075Z,3.45
2018-07-27T14:36:25.801Z,3.40
2018-07-27T14:38:54.295Z,3.30
2018-07-27T14:41:23.003Z,3.15
2018-07-27T14:43:51.898Z,3.42
2018-07-27T14:46:24.278Z,3.58
2018-07-27T14:49:01.196Z,3.20
2018-07-27T14:51:30.013Z,3.40
2018-07-27T14:53:58.308Z,3.33
2018-07-27T14:56:26.580Z,3.10
2018-07-27T14:58:55.104Z,3.50
2018-07-27T15:01:23.384Z,3.52
2018-07-27T15:03:51.704Z,3.55
2018-07-27T15:06:20.003Z,3.60
2018-07-27T15:08:48.510Z,3.62
2018-07-27T15:11:16.934Z,3.87
2018-07-27T15:13:45.325Z,3.75
2018-07-27T15:16:13.650Z,4.00
2018-07-27T15:18:41.924Z,3.80
2018-07-27T15:21:10.305Z,3.55
2018-07-27T15:23:38.861Z,3.58
2018-07-27T15:26:07.171Z,3.87
2018-07-27T15:28:35.757Z,3.22
2018-07-27T15:31:04.134Z,3.60
2018-07-27T15:33:32.802Z,3.08
2018-07-27T15:36:01.125Z,3.67
2018-07-27T15:38:29.417Z,3.20
2018-07-27T15:40:57.871Z,3.50
2018-07-27T15:43:26.160Z,3.12
2018-07-27T15:45:55.313Z,3.58
2018-07-27T15:48:23.675Z,3.47
2018-07-27T15:50:51.938Z,3.37
2018-07-27T15:53:20.661Z,3.45
2018-07-27T15:55:48.958Z,3.45
2018-07-27T15:58:17.290Z,3.58
2018-07-27T16:00:45.628Z,3.33
2018-07-27T16:03:13.917Z,3.30
2018-07-27T16:05:43.691Z,3.60
2018-07-27T16:08:12.010Z,3.40
2018-07-27T16:10:40.937Z,2.98
2018-07-27T16:13:09.280Z,3.30
2018-07-27T16:15:37.833Z,3.50
2018-07-27T16:18:06.141Z,3.30
2018-07-27T16:20:34.628Z,3.35
2018-07-27T16:23:02.951Z,3.50
2018-07-27T16:25:31.266Z,3.50
2018-07-27T16:27:59.582Z,3.58
2018-07-27T16:30:27.898Z,3.70
2018-07-27T16:32:56.246Z,3.10
2018-07-27T16:35:26.041Z,3.40
2018-07-27T16:37:54.359Z,2.98
2018-07-27T16:40:22.986Z,3.00
2018-07-27T16:42:51.351Z,3.20
2018-07-27T16:45:19.643Z,3.65
2018-07-27T16:47:47.988Z,3.30
2018-07-27T16:50:16.322Z,3.02
2018-07-27T16:52:44.689Z,3.10
2018-07-27T16:55:13.027Z,3.20
2018-07-27T16:57:41.306Z,3.33
2018-07-27T17:00:09.623Z,2.75
2018-07-27T17:02:37.949Z,3.00
2018-07-27T17:05:06.613Z,3.20
2018-07-27T17:07:35.300Z,3.17
2018-07-27T17:10:03.885Z,3.00
2018-07-27T17:12:32.164Z,3.30
2018-07-27T17:15:01.542Z,2.90
2018-07-27T17:17:29.828Z,3.20
2018-07-27T17:19:58.153Z,3.15
2018-07-27T17:22:26.669Z,3.15
2018-07-27T17:24:55.135Z,3.15
2018-07-27T17:27:23.450Z,2.87
2018-07-27T17:29:52.166Z,3.08
2018-07-27T17:32:20.526Z,3.27
2018-07-27T17:34:48.988Z,3.50
2018-07-27T17:37:17.259Z,3.25
2018-07-27T17:39:45.527Z,3.40
2018-07-27T17:42:13.857Z,3.35
2018-07-27T17:44:42.225Z,3.50
2018-07-27T17:47:10.629Z,3.62
2018-07-27T17:49:38.928Z,3.42
2018-07-27T17:52:07.575Z,3.33
2018-07-27T17:54:36.141Z,3.42
2018-07-27T17:57:04.522Z,3.60
2018-07-27T17:59:32.841Z,3.95
2018-07-27T18:02:01.180Z,3.60
2018-07-27T18:04:29.594Z,4.03
2018-07-27T18:06:58.825Z,3.72
2018-07-27T18:09:27.801Z,3.92
2018-07-27T18:11:56.102Z,4.10
2018-07-27T18:14:24.467Z,3.90
2018-07-27T18:16:52.782Z,3.75
2018-07-27T18:19:21.164Z,3.90
2018-07-27T18:21:49.531Z,4.20
2018-07-27T18:24:17.818Z,4.12
2018-07-27T18:26:46.167Z,4.30
2018-07-27T18:29:14.498Z,4.10
2018-07-27T18:31:43.030Z,4.10
2018-07-27T18:34:11.441Z,4.37
2018-07-27T18:36:39.958Z,4.07
2018-07-27T18:39:10.296Z,4.30
2018-07-27T18:41:39.234Z,4.00
2018-07-27T18:44:07.989Z,4.67
2018-07-27T18:46:37.154Z,4.13
2018-07-27T18:49:05.531Z,4.20
2018-07-27T18:51:33.823Z,4.23
2018-07-27T18:54:02.140Z,4.57
2018-07-27T18:56:30.469Z,4.97
2018-07-27T18:58:58.815Z,4.57
2018-07-27T19:01:27.183Z,4.20
2018-07-27T19:03:55.555Z,4.13
2018-07-27T19:06:24.428Z,4.20
2018-07-27T19:08:52.698Z,4.20
2018-07-27T19:11:20.989Z,4.20
2018-07-27T19:13:49.609Z,4.13
2018-07-27T19:16:17.926Z,4.33
2018-07-27T19:18:46.223Z,4.00
2018-07-27T19:21:14.554Z,4.40
2018-07-27T19:23:42.842Z,4.60
2018-07-27T19:26:11.167Z,4.17
2018-07-27T19:28:40.014Z,4.40
2018-07-27T19:31:08.645Z,4.60
2018-07-27T19:33:37.305Z,4.60
2018-07-27T19:36:05.739Z,4.37
2018-07-27T19:38:34.034Z,4.60
2018-07-27T19:41:02.369Z,4.90
2018-07-27T19:43:30.644Z,5.00
2018-07-27T19:45:59.954Z,4.90
2018-07-27T19:48:28.310Z,5.53
2018-07-27T19:50:57.259Z,4.97
2018-07-27T19:53:26.250Z,4.80
2018-07-27T19:55:54.616Z,5.60
2018-07-27T19:58:22.987Z,5.40
2018-07-27T20:00:51.352Z,5.57
2018-07-27T20:03:19.693Z,5.73
2018-07-27T20:05:47.997Z,6.23
2018-07-27T20:08:16.422Z,5.70
2018-07-27T20:10:44.831Z,6.10
2018-07-27T20:13:13.179Z,6.00
2018-07-27T20:15:41.485Z,5.83
2018-07-27T20:18:09.813Z,6.17
2018-07-27T20:20:38.287Z,6.20
2018-07-27T20:23:06.585Z,6.13
2018-07-27T20:25:35.011Z,6.53
2018-07-27T20:28:03.343Z,6.60
2018-07-27T20:30:31.739Z,6.47
2018-07-27T20:33:00.050Z,6.70
2018-07-27T20:35:28.323Z,6.50
2018-07-27T20:37:56.647Z,6.57
2018-07-27T20:40:26.013Z,6.27
2018-07-27T20:42:54.303Z,6.43
2018-07-27T20:45:22.975Z,6.47
2018-07-27T20:47:51.260Z,6.30
2018-07-27T20:50:19.560Z,6.93
2018-07-27T20:52:47.977Z,7.23
2018-07-27T20:55:16.382Z,7.23
2018-07-27T20:57:44.775Z,7.10
2018-07-27T21:00:14.285Z,6.87
2018-07-27T21:02:44.275Z,7.13
2018-07-27T21:05:13.359Z,6.90
2018-07-27T21:07:42.301Z,7.00
2018-07-27T21:10:11.328Z,6.90
2018-07-27T21:12:40.296Z,7.07
2018-07-27T21:15:08.862Z,7.00
2018-07-27T21:17:38.275Z,7.43
2018-07-27T21:20:07.043Z,7.00
2018-07-27T21:22:35.451Z,7.10
2018-07-27T21:25:03.842Z,6.77
2018-07-27T21:27:32.215Z,7.37
2018-07-27T21:30:00.515Z,7.47
2018-07-27T21:32:28.925Z,7.57
2018-07-27T21:34:57.250Z,7.57
2018-07-27T21:37:25.542Z,7.60
2018-07-27T21:39:53.848Z,7.70
2018-07-27T21:42:23.251Z,7.70
2018-07-27T21:44:51.573Z,7.43
2018-07-27T21:47:20.114Z,7.50
2018-07-27T21:49:48.433Z,7.63
2018-07-27T21:52:16.760Z,7.40
2018-07-27T21:54:45.143Z,7.97
2018-07-27T21:57:13.448Z,8.33
2018-07-27T21:59:41.831Z,7.90
2018-07-27T22:02:10.427Z,7.63
2018-07-27T22:04:38.715Z,8.10
2018-07-27T22:07:07.002Z,7.83
2018-07-27T22:09:36.357Z,7.97
2018-07-27T22:12:04.760Z,8.20
2018-07-27T22:14:33.082Z,8.40
2018-07-27T22:17:01.358Z,8.57
2018-07-27T22:19:29.631Z,7.73
2018-07-27T22:21:57.913Z,8.00
2018-07-27T22:24:26.214Z,7.43
2018-07-27T22:26:54.535Z,7.80
2018-07-27T22:29:22.808Z,8.80
2018-07-27T22:31:51.106Z,8.10
2018-07-27T22:34:19.498Z,7.87
2018-07-27T22:36:47.875Z,8.30
2018-07-27T22:39:16.195Z,8.43
2018-07-27T22:41:44.516Z,8.63
2018-07-27T22:44:12.858Z,8.17
2018-07-27T22:46:41.256Z,8.57
2018-07-27T22:49:09.633Z,8.97
2018-07-27T22:51:38.028Z,7.97
2018-07-27T22:54:06.514Z,8.00
2018-07-27T22:56:34.813Z,8.07
2018-07-27T22:59:03.124Z,8.77
2018-07-27T23:01:31.472Z,8.23
2018-07-27T23:03:59.863Z,7.97
2018-07-27T23:06:28.235Z,8.43
2018-07-27T23:08:56.549Z,8.57
2018-07-27T23:11:24.855Z,8.30
2018-07-27T23:13:53.149Z,8.30
2018-07-27T23:16:21.438Z,8.60
2018-07-27T23:18:50.010Z,8.80
2018-07-27T23:21:18.292Z,7.87
2018-07-27T23:23:46.699Z,8.80
2018-07-27T23:26:15.002Z,8.70
2018-07-27T23:28:43.313Z,9.03
2018-07-27T23:31:11.613Z,8.23
2018-07-27T23:33:39.964Z,8.37
2018-07-27T23:36:08.253Z,8.27
2018-07-27T23:38:36.544Z,8.50
2018-07-27T23:41:04.829Z,7.93
2018-07-27T23:43:33.146Z,8.07
2018-07-27T23:46:01.528Z,8.07
2018-07-27T23:48:29.835Z,8.30
2018-07-27T23:50:58.130Z,8.37
2018-07-27T23:53:26.523Z,8.23
2018-07-27T23:55:54.833Z,8.33
2018-07-27T23:58:23.254Z,8.40
